Heat Index SAI AWOS Graphical Display Untitled Document
Brandywine Airport
340
20:18
17/09/28
12
18
N/A
29.85
1700
466
75(F), 24(C)
44(F), 7(C)
77 F
34%
CLR
10
N/A
N/A
N/A
20:18 zulu Wind 340 at 12 Knots, Gusting 18 Knots, Altimeter 29.85
METAR KOQN 282018Z AUTO 34012G18KT 10SM CLR 24/07 A2985 A02
METAR:
FAA Disclaimer--Advisory Use ONLY, not for flight info-- 3/09/2009: Brandywine Airport , PA now online 24/7. Pilots with SMARTPHONES can view the airport on their cellphones at http://www.saiawos3.com/OQN
INFO:
Wind Direction:
Wind Speed:
Wind Gust:
Wind Variable:
Altimeter:
Dens Alt:
Elev:
Temp:
Dwpt:
Heat Index
Rel Humidity:
Ceiling:
Visibility:
Prsnt Wea:
PCPN:
Remarks:
NOTICE--Current weather data is more than 15 minutes old. The SAI AWOS/ASOS Display is inoperative at this time.
How to read the WebPage